Time;durP1;ratioP1;P1;durP2;ratioP2;P2;SDS_P1;SDS_P2;PMS_P1;PMS_P2;Temp;Humidity;BMP_temperature;BMP_pressure;BME280_temperature;BME280_humidity;BME280_pressure;Samples;Min_cycle;Max_cycle;Signal;HPM_P1;HPM_P2
2022/04/07 00:02:03;;;;;;;3.17;1.80;;;10.10;99.90;;;;;;5032168;28;20180;-67
2022/04/07 00:04:29;;;;;;;1.20;1.10;;;10.00;99.90;;;;;;5032226;28;20254;-68
2022/04/07 00:06:55;;;;;;;1.37;1.20;;;10.10;99.90;;;;;;5032262;28;20207;-67
2022/04/07 00:09:20;;;;;;;1.50;1.40;;;10.00;99.90;;;;;;5032103;28;20525;-68
2022/04/07 00:11:46;;;;;;;2.83;1.67;;;10.00;99.90;;;;;;5032008;28;20196;-68
2022/04/07 00:14:11;;;;;;;5.20;1.50;;;10.00;99.90;;;;;;5032354;28;20234;-67
2022/04/07 00:16:37;;;;;;;3.43;1.73;;;10.00;99.90;;;;;;5032135;28;20176;-67
2022/04/07 00:19:02;;;;;;;1.10;1.00;;;10.00;99.90;;;;;;5031716;28;20294;-68
2022/04/07 00:21:35;;;;;;;2.90;1.47;;;10.00;99.90;;;;;;5031797;28;20197;-68
2022/04/07 00:24:05;;;;;;;1.87;1.20;;;10.00;99.90;;;;;;5031813;28;20271;-68
2022/04/07 00:26:32;;;;;;;8.00;1.77;;;10.00;99.90;;;;;;5031655;28;20457;-67
2022/04/07 00:28:58;;;;;;;1.70;1.50;;;10.00;99.90;;;;;;5032006;28;20414;-66
2022/04/07 00:31:23;;;;;;;1.87;1.53;;;10.00;99.90;;;;;;5031617;28;20420;-67
2022/04/07 00:33:49;;;;;;;2.27;2.07;;;10.00;99.90;;;;;;5031707;28;20541;-67
2022/04/07 00:36:14;;;;;;;1.77;1.47;;;10.00;99.90;;;;;;5031996;28;20167;-67
2022/04/07 00:38:40;;;;;;;1.30;1.20;;;10.00;99.90;;;;;;5031759;28;20222;-67
2022/04/07 00:41:05;;;;;;;2.40;1.20;;;10.00;99.90;;;;;;5031843;28;20196;-68
2022/04/07 00:43:32;;;;;;;3.77;1.30;;;9.90;99.90;;;;;;5031807;28;20210;-68
2022/04/07 00:45:59;;;;;;;1.60;1.50;;;9.90;99.90;;;;;;5031483;28;20645;-67
2022/04/07 00:48:26;;;;;;;1.70;1.60;;;9.90;99.90;;;;;;5031312;28;20747;-67
2022/04/07 00:50:53;;;;;;;2.10;1.30;;;9.80;99.90;;;;;;5031151;28;20934;-66
2022/04/07 00:53:19;;;;;;;1.73;1.13;;;9.80;99.90;;;;;;5030926;28;20842;-66
2022/04/07 00:55:45;;;;;;;3.30;1.57;;;9.80;99.90;;;;;;5031129;28;20458;-67
2022/04/07 00:58:10;;;;;;;1.60;1.50;;;9.80;99.90;;;;;;5031378;28;20178;-67
2022/04/07 01:00:36;;;;;;;1.10;1.00;;;9.80;99.90;;;;;;5031294;28;20427;-67
2022/04/07 01:03:02;;;;;;;2.13;1.63;;;9.70;99.90;;;;;;5031129;28;20184;-67
2022/04/07 01:05:27;;;;;;;2.70;1.60;;;9.70;99.90;;;;;;5030875;28;20182;-68
2022/04/07 01:07:54;;;;;;;1.20;1.10;;;9.70;99.90;;;;;;5030786;28;20259;-68
2022/04/07 01:10:20;;;;;;;1.87;1.40;;;9.60;99.90;;;;;;5031071;28;20362;-67
2022/04/07 01:12:45;;;;;;;1.53;1.43;;;9.60;99.90;;;;;;5030749;28;20857;-67
2022/04/07 01:15:11;;;;;;;1.37;1.27;;;9.60;99.90;;;;;;5030625;28;20411;-67
2022/04/07 01:17:38;;;;;;;1.90;1.80;;;9.60;99.90;;;;;;5030871;28;20260;-67
2022/04/07 01:20:05;;;;;;;1.37;1.20;;;9.70;99.90;;;;;;5030686;28;20533;-67
2022/04/07 01:22:34;;;;;;;1.10;1.00;;;9.70;99.90;;;;;;5029130;28;20431;-67
2022/04/07 01:25:00;;;;;;;2.33;1.40;;;9.70;99.90;;;;;;5030526;28;20406;-67
2022/04/07 01:27:25;;;;;;;4.07;2.03;;;9.70;99.90;;;;;;5030519;28;20462;-67
2022/04/07 01:29:56;;;;;;;3.37;1.47;;;9.70;99.90;;;;;;5030519;28;20187;-67
2022/04/07 01:32:40;;;;;;;1.57;1.47;;;9.70;99.90;;;;;;5030445;28;20208;-67
2022/04/07 01:35:06;;;;;;;1.40;1.13;;;9.70;99.90;;;;;;5030879;28;20410;-67
2022/04/07 01:37:32;;;;;;;1.40;1.27;;;9.70;99.90;;;;;;5030646;28;20403;-67
2022/04/07 01:39:59;;;;;;;2.33;1.57;;;9.70;99.90;;;;;;5030594;28;20476;-67
2022/04/07 01:42:25;;;;;;;3.17;1.40;;;9.70;99.90;;;;;;5030506;28;20493;-67
2022/04/07 01:44:54;;;;;;;2.00;1.33;;;9.70;99.90;;;;;;5028402;28;20445;-67
2022/04/07 01:47:21;;;;;;;4.17;1.50;;;9.70;99.90;;;;;;5030391;28;20567;-66
2022/04/07 01:49:54;;;;;;;1.73;1.33;;;9.60;99.90;;;;;;5030274;28;20412;-67
2022/04/07 01:52:20;;;;;;;4.40;1.63;;;9.60;99.90;;;;;;5030458;28;20404;-67
2022/04/07 01:54:47;;;;;;;4.90;2.00;;;9.60;99.90;;;;;;5030312;28;20453;-67
2022/04/07 01:57:13;;;;;;;4.33;1.87;;;9.60;99.90;;;;;;5030525;28;20472;-67
2022/04/07 01:59:39;;;;;;;2.17;1.97;;;9.70;99.90;;;;;;5030160;28;20399;-66
2022/04/07 02:02:04;;;;;;;1.83;1.70;;;9.60;99.90;;;;;;5030316;28;20769;-66
2022/04/07 02:04:29;;;;;;;11.17;1.87;;;9.70;99.90;;;;;;5030108;28;20562;-66
2022/04/07 02:06:55;;;;;;;1.50;1.40;;;9.70;99.90;;;;;;5030200;28;20203;-67
2022/04/07 02:09:20;;;;;;;4.03;1.80;;;9.70;99.90;;;;;;5030165;28;20591;-66
2022/04/07 02:11:47;;;;;;;2.00;1.60;;;9.60;99.90;;;;;;5030020;28;20189;-67
2022/04/07 02:14:12;;;;;;;2.03;1.90;;;9.70;99.90;;;;;;5030268;28;20536;-67
2022/04/07 02:16:38;;;;;;;2.27;1.83;;;9.70;99.90;;;;;;5030159;28;20412;-68
2022/04/07 02:19:03;;;;;;;3.83;1.93;;;9.70;99.90;;;;;;5030677;28;20590;-68
2022/04/07 02:21:29;;;;;;;2.73;2.53;;;9.70;99.90;;;;;;5030429;28;20232;-67
2022/04/07 02:23:54;;;;;;;2.57;2.37;;;9.70;99.90;;;;;;5030446;28;20225;-68
2022/04/07 02:26:20;;;;;;;2.80;1.80;;;9.70;99.90;;;;;;5029966;28;20243;-67
2022/04/07 02:28:45;;;;;;;4.10;2.20;;;9.60;99.90;;;;;;5030303;28;20161;-68
2022/04/07 02:31:11;;;;;;;3.10;1.67;;;9.60;99.90;;;;;;5029978;28;20188;-66
2022/04/07 02:33:37;;;;;;;3.10;1.80;;;9.50;99.90;;;;;;5029846;28;20195;-67
2022/04/07 02:36:07;;;;;;;3.00;1.70;;;9.50;99.90;;;;;;5029843;28;20570;-68
2022/04/07 02:38:34;;;;;;;1.70;1.60;;;9.40;99.90;;;;;;5028607;28;20957;-67
2022/04/07 02:40:59;;;;;;;3.10;2.70;;;9.40;99.90;;;;;;5029749;28;20434;-67
2022/04/07 02:43:25;;;;;;;5.00;2.67;;;9.30;99.90;;;;;;5033060;28;20406;-67
2022/04/07 02:45:51;;;;;;;2.03;1.83;;;9.20;99.90;;;;;;5032162;28;20211;-68
2022/04/07 02:48:17;;;;;;;1.90;1.57;;;9.20;99.90;;;;;;5033768;28;20171;-67
2022/04/07 02:50:43;;;;;;;3.87;2.33;;;9.20;99.90;;;;;;5033656;28;20207;-69
2022/04/07 02:53:09;;;;;;;2.40;2.13;;;9.20;99.90;;;;;;5033580;28;20421;-68
2022/04/07 02:55:35;;;;;;;6.10;2.50;;;9.20;99.90;;;;;;5033598;28;20521;-68
2022/04/07 02:58:00;;;;;;;4.10;1.90;;;9.30;99.90;;;;;;5033420;28;20421;-68
2022/04/07 03:00:26;;;;;;;5.13;2.17;;;9.20;99.90;;;;;;5031861;28;20230;-67
2022/04/07 03:02:52;;;;;;;2.60;2.00;;;9.10;99.90;;;;;;5033271;28;20230;-67
2022/04/07 03:05:17;;;;;;;1.70;1.50;;;9.10;99.90;;;;;;5033311;28;20235;-67
2022/04/07 03:07:43;;;;;;;2.40;1.90;;;9.10;99.90;;;;;;5033053;28;20249;-67
2022/04/07 03:10:09;;;;;;;5.10;2.73;;;9.10;99.90;;;;;;5032956;28;20205;-65
2022/04/07 03:12:35;;;;;;;2.23;1.80;;;9.10;99.90;;;;;;5032926;28;20179;-66
2022/04/07 03:15:01;;;;;;;3.67;2.47;;;9.10;99.90;;;;;;5032962;28;20417;-67
2022/04/07 03:17:27;;;;;;;2.47;2.27;;;9.00;99.90;;;;;;5033066;28;20836;-68
2022/04/07 03:19:52;;;;;;;3.87;2.73;;;9.00;99.90;;;;;;5031766;28;20522;-67
2022/04/07 03:22:19;;;;;;;2.37;1.57;;;9.00;99.90;;;;;;5033002;28;20207;-67
2022/04/07 03:24:45;;;;;;;2.10;1.90;;;8.90;99.90;;;;;;5033337;28;20261;-68
2022/04/07 03:27:11;;;;;;;2.80;2.07;;;8.90;99.90;;;;;;5032917;28;20977;-67
2022/04/07 03:29:36;;;;;;;4.37;3.10;;;8.90;99.90;;;;;;5032675;28;20493;-66
2022/04/07 03:32:02;;;;;;;2.80;2.30;;;9.00;99.90;;;;;;5032761;28;20172;-66
2022/04/07 03:34:28;;;;;;;2.93;2.60;;;9.00;99.90;;;;;;5032804;28;20314;-67
2022/04/07 03:36:53;;;;;;;2.30;1.50;;;9.00;99.90;;;;;;5032787;28;20532;-67
2022/04/07 03:39:19;;;;;;;4.93;1.80;;;9.00;99.90;;;;;;5032901;28;20179;-67
2022/04/07 03:41:44;;;;;;;1.93;1.83;;;9.00;99.90;;;;;;5032521;28;20183;-67
2022/04/07 03:44:10;;;;;;;2.20;2.00;;;9.00;99.90;;;;;;5030907;28;20657;-67
2022/04/07 03:46:37;;;;;;;2.70;2.00;;;9.10;99.90;;;;;;5032759;28;20199;-68
2022/04/07 03:49:03;;;;;;;2.40;2.20;;;9.00;99.90;;;;;;5031536;28;20398;-67
2022/04/07 03:51:28;;;;;;;3.00;2.00;;;9.00;99.90;;;;;;5032906;28;20956;-67
2022/04/07 03:53:54;;;;;;;3.20;2.30;;;9.00;99.90;;;;;;5032148;28;20952;-67
2022/04/07 03:56:19;;;;;;;2.93;2.30;;;9.10;99.90;;;;;;5032539;28;20579;-66
2022/04/07 03:58:45;;;;;;;2.43;1.97;;;9.10;99.90;;;;;;5032222;28;20546;-66
2022/04/07 04:01:10;;;;;;;3.37;2.07;;;9.10;99.90;;;;;;5032100;28;20218;-67
2022/04/07 04:03:36;;;;;;;1.60;1.50;;;9.10;99.90;;;;;;5032146;28;20164;-68
2022/04/07 04:06:02;;;;;;;4.23;2.60;;;9.10;99.90;;;;;;5032293;28;20246;-67
2022/04/07 04:08:27;;;;;;;3.33;2.33;;;9.10;99.90;;;;;;5032220;28;20216;-68
2022/04/07 04:10:53;;;;;;;3.00;2.70;;;9.10;99.90;;;;;;5031970;28;20201;-67
2022/04/07 04:13:19;;;;;;;2.40;2.10;;;9.20;99.90;;;;;;5032033;28;20522;-68
2022/04/07 04:15:45;;;;;;;1.63;1.50;;;9.10;99.90;;;;;;5031801;28;20648;-68
2022/04/07 04:18:10;;;;;;;2.60;2.33;;;9.20;99.90;;;;;;5032127;28;20421;-67
2022/04/07 04:20:36;;;;;;;7.30;2.83;;;9.30;99.90;;;;;;5031997;28;20188;-68
2022/04/07 04:23:01;;;;;;;3.43;2.10;;;9.30;99.90;;;;;;5031861;28;20195;-67
2022/04/07 04:25:27;;;;;;;3.10;2.17;;;9.30;99.90;;;;;;5031881;28;20206;-67
2022/04/07 04:27:52;;;;;;;2.30;2.10;;;9.30;99.90;;;;;;5031910;28;20636;-67
2022/04/07 04:30:18;;;;;;;3.10;2.30;;;9.30;99.90;;;;;;5031793;28;20227;-67
2022/04/07 04:32:44;;;;;;;2.80;1.87;;;9.40;99.90;;;;;;5031656;28;20187;-68
2022/04/07 04:35:10;;;;;;;3.93;2.53;;;9.30;99.90;;;;;;5031321;28;20275;-67
2022/04/07 04:37:36;;;;;;;3.10;1.90;;;9.40;99.90;;;;;;5031338;28;20752;-66
2022/04/07 04:40:03;;;;;;;2.97;2.60;;;9.40;99.90;;;;;;5030061;28;21019;-68
2022/04/07 04:42:28;;;;;;;2.43;2.03;;;9.40;99.90;;;;;;5031345;28;20406;-68
2022/04/07 04:44:53;;;;;;;3.53;2.43;;;9.40;99.90;;;;;;5031494;28;20425;-68
2022/04/07 04:47:19;;;;;;;8.33;1.97;;;9.50;99.90;;;;;;5031403;28;20197;-67
2022/04/07 04:49:45;;;;;;;2.60;2.40;;;9.50;99.90;;;;;;5031453;28;20702;-67
2022/04/07 04:52:11;;;;;;;1.80;1.60;;;9.50;99.90;;;;;;5031571;28;20685;-67
2022/04/07 04:54:37;;;;;;;1.63;1.53;;;9.50;99.90;;;;;;5031556;28;20554;-67
2022/04/07 04:57:03;;;;;;;3.17;2.13;;;9.60;99.90;;;;;;5031287;28;20413;-67
2022/04/07 04:59:29;;;;;;;4.27;1.53;;;9.60;99.90;;;;;;5031112;28;20492;-66
2022/04/07 05:01:55;;;;;;;1.93;1.40;;;9.70;99.90;;;;;;5030878;28;20923;-66
2022/04/07 05:04:20;;;;;;;2.30;1.57;;;9.70;99.90;;;;;;5030995;28;20249;-67
2022/04/07 05:06:46;;;;;;;2.07;1.77;;;9.70;99.90;;;;;;5029872;28;20230;-68
2022/04/07 05:09:11;;;;;;;1.93;1.83;;;9.70;99.90;;;;;;5031202;28;20721;-66
2022/04/07 05:11:36;;;;;;;3.50;1.93;;;9.70;99.90;;;;;;5031046;28;20556;-67
2022/04/07 05:14:02;;;;;;;1.70;1.60;;;9.70;99.90;;;;;;5030977;28;20182;-67
2022/04/07 05:16:28;;;;;;;1.97;1.60;;;9.80;99.90;;;;;;5030852;28;20179;-67
2022/04/07 05:18:53;;;;;;;1.50;1.40;;;9.80;99.90;;;;;;5031167;28;20183;-68
2022/04/07 05:21:19;;;;;;;2.40;1.77;;;9.80;99.90;;;;;;5031991;28;20272;-67
2022/04/07 05:23:44;;;;;;;1.80;1.67;;;9.80;99.90;;;;;;5031074;28;20174;-67
2022/04/07 05:26:12;;;;;;;1.77;1.53;;;9.80;99.90;;;;;;5030649;28;20196;-67
2022/04/07 05:28:38;;;;;;;2.50;1.47;;;9.90;99.90;;;;;;5030737;28;20253;-68
2022/04/07 05:31:04;;;;;;;2.50;1.87;;;9.90;99.90;;;;;;5030772;28;20476;-68
2022/04/07 05:33:29;;;;;;;3.40;1.97;;;9.90;99.90;;;;;;5030536;28;20406;-67
2022/04/07 05:35:55;;;;;;;1.50;1.40;;;9.90;99.90;;;;;;5030373;28;20203;-68
2022/04/07 05:38:21;;;;;;;1.70;1.60;;;9.90;99.90;;;;;;5030796;28;20175;-67
2022/04/07 05:40:46;;;;;;;1.67;1.57;;;9.90;99.90;;;;;;5030710;28;20199;-67
2022/04/07 05:43:12;;;;;;;2.07;1.97;;;9.90;99.90;;;;;;5028822;28;20584;-67
2022/04/07 05:45:39;;;;;;;2.17;1.63;;;9.90;99.90;;;;;;5030212;28;20181;-67
2022/04/07 05:48:04;;;;;;;1.73;1.63;;;10.00;99.90;;;;;;5020604;28;20705;-67
2022/04/07 05:50:30;;;;;;;1.43;1.27;;;10.00;99.90;;;;;;5024001;28;20438;-67
2022/04/07 05:52:55;;;;;;;2.03;1.87;;;10.00;99.90;;;;;;5010772;28;20255;-67
2022/04/07 05:55:21;;;;;;;1.80;1.60;;;10.10;99.90;;;;;;5013010;28;20160;-67
2022/04/07 05:57:46;;;;;;;2.00;1.70;;;10.10;99.90;;;;;;5010824;28;20183;-67
2022/04/07 06:00:13;;;;;;;1.57;1.47;;;10.20;99.90;;;;;;5010641;28;20196;-67
2022/04/07 06:02:39;;;;;;;2.27;1.47;;;10.40;99.90;;;;;;5028200;28;20665;-67
2022/04/07 06:05:07;;;;;;;2.20;1.47;;;10.40;99.90;;;;;;5024397;28;20435;-67
2022/04/07 06:07:32;;;;;;;2.10;2.00;;;10.50;99.90;;;;;;5030529;28;20458;-67
2022/04/07 06:10:03;;;;;;;2.80;1.97;;;10.50;99.90;;;;;;5030727;28;20908;-69
2022/04/07 06:12:29;;;;;;;2.20;1.57;;;10.60;99.90;;;;;;5029737;28;20265;-67
2022/04/07 06:14:54;;;;;;;1.57;1.47;;;10.60;99.90;;;;;;5050391;28;20448;-68
2022/04/07 06:17:20;;;;;;;2.20;1.57;;;10.80;99.90;;;;;;5052007;28;20186;-68
2022/04/07 06:19:45;;;;;;;1.73;1.63;;;10.80;99.90;;;;;;5054293;28;20182;-67
2022/04/07 06:22:12;;;;;;;2.10;1.80;;;10.80;99.90;;;;;;5020324;28;20262;-68
2022/04/07 06:24:37;;;;;;;2.10;1.50;;;10.90;99.90;;;;;;5014385;28;20179;-67
2022/04/07 06:27:03;;;;;;;2.60;1.80;;;11.00;99.90;;;;;;5014507;28;20493;-69
2022/04/07 06:29:29;;;;;;;1.37;1.20;;;11.10;99.90;;;;;;5014326;28;20165;-68
2022/04/07 06:31:54;;;;;;;2.07;1.80;;;11.10;99.90;;;;;;5014786;28;20407;-68
2022/04/07 06:34:23;;;;;;;1.83;1.67;;;11.00;99.90;;;;;;5014567;28;20184;-68
2022/04/07 06:36:48;;;;;;;1.33;1.10;;;11.00;99.90;;;;;;5027476;28;20187;-68
2022/04/07 06:39:14;;;;;;;1.40;1.30;;;11.20;99.90;;;;;;5033996;28;21020;-68
2022/04/07 06:41:39;;;;;;;2.17;1.70;;;11.10;99.90;;;;;;5033861;28;20192;-68
2022/04/07 06:44:05;;;;;;;2.20;2.00;;;11.20;99.90;;;;;;5032514;28;20179;-70
2022/04/07 06:46:32;;;;;;;3.47;1.57;;;11.30;99.90;;;;;;5033780;28;20195;-69
2022/04/07 06:48:58;;;;;;;4.20;2.40;;;11.30;99.90;;;;;;5033885;28;20180;-68
2022/04/07 06:51:24;;;;;;;4.33;2.20;;;11.40;99.90;;;;;;5033516;28;20476;-69
2022/04/07 06:53:49;;;;;;;3.30;2.00;;;11.40;99.90;;;;;;5033978;28;20481;-69
2022/04/07 06:56:14;;;;;;;1.80;1.70;;;11.30;99.90;;;;;;5033512;28;20176;-69
2022/04/07 06:58:40;;;;;;;2.10;1.80;;;11.30;99.90;;;;;;5033561;28;20242;-68
2022/04/07 07:01:05;;;;;;;2.50;1.40;;;11.30;99.90;;;;;;5033220;28;20576;-68
2022/04/07 07:03:32;;;;;;;1.80;1.20;;;11.30;99.90;;;;;;5033414;28;20653;-68
2022/04/07 07:05:58;;;;;;;1.50;1.23;;;11.50;99.90;;;;;;5033635;28;20293;-68
2022/04/07 07:08:24;;;;;;;1.30;1.20;;;11.50;99.90;;;;;;5033603;28;20414;-69
2022/04/07 07:10:51;;;;;;;4.20;1.40;;;11.50;99.90;;;;;;5033263;28;20223;-69
2022/04/07 07:13:20;;;;;;;1.20;1.10;;;11.70;99.90;;;;;;5033303;28;20172;-68
2022/04/07 07:15:46;;;;;;;1.77;1.40;;;11.90;99.90;;;;;;5033299;28;20497;-68
2022/04/07 07:18:11;;;;;;;1.70;1.60;;;11.80;99.90;;;;;;5033351;28;20439;-69
2022/04/07 07:20:37;;;;;;;1.50;1.13;;;11.90;99.90;;;;;;5027468;28;20985;-69
2022/04/07 07:23:02;;;;;;;1.20;1.10;;;12.30;99.90;;;;;;5027871;28;20180;-68
2022/04/07 07:25:31;;;;;;;1.80;1.13;;;12.70;99.90;;;;;;5033115;28;20180;-67
2022/04/07 07:27:57;;;;;;;1.97;1.70;;;13.40;99.90;;;;;;5032925;28;20180;-67
2022/04/07 07:30:23;;;;;;;1.70;1.30;;;13.80;99.90;;;;;;5032483;28;20426;-67
2022/04/07 07:32:48;;;;;;;1.53;0.90;;;13.70;99.90;;;;;;5033400;28;20409;-68
2022/04/07 07:35:20;;;;;;;1.30;1.20;;;13.80;99.90;;;;;;5033084;28;20167;-67
2022/04/07 07:37:59;;;;;;;1.43;1.33;;;14.30;99.90;;;;;;5027657;28;20547;-67
2022/04/07 07:40:27;;;;;;;3.73;1.30;;;14.40;99.90;;;;;;5031751;28;20481;-67
2022/04/07 07:42:56;;;;;;;1.13;1.00;;;14.70;99.90;;;;;;5033271;28;20455;-67
2022/04/07 07:45:22;;;;;;;1.57;1.30;;;14.40;99.90;;;;;;5032768;28;20918;-66
2022/04/07 07:47:48;;;;;;;1.27;1.17;;;14.10;99.90;;;;;;5032923;28;20417;-66
2022/04/07 07:50:14;;;;;;;1.10;1.00;;;14.10;99.90;;;;;;5032457;28;20819;-66
2022/04/07 07:52:39;;;;;;;1.03;0.97;;;14.30;99.90;;;;;;5032502;28;20179;-66
2022/04/07 07:55:06;;;;;;;1.10;1.00;;;14.10;99.90;;;;;;5032433;28;20238;-66
2022/04/07 07:57:31;;;;;;;1.33;1.23;;;13.60;99.90;;;;;;5032854;28;20577;-67
2022/04/07 07:59:57;;;;;;;3.37;1.17;;;14.20;99.90;;;;;;5033323;28;20445;-67
2022/04/07 08:02:23;;;;;;;1.80;0.90;;;14.00;99.90;;;;;;5032492;28;20186;-68
2022/04/07 08:04:48;;;;;;;1.47;1.03;;;14.30;99.90;;;;;;5032859;28;20402;-67
2022/04/07 08:07:14;;;;;;;1.27;1.17;;;14.20;99.90;;;;;;5032766;28;20203;-68
2022/04/07 08:09:40;;;;;;;1.20;1.00;;;14.40;99.90;;;;;;5031239;28;20206;-66
2022/04/07 08:12:06;;;;;;;0.93;0.90;;;14.70;99.90;;;;;;5031940;28;20285;-68
2022/04/07 08:14:32;;;;;;;1.70;1.40;;;15.00;99.90;;;;;;5031180;28;20866;-67
2022/04/07 08:16:58;;;;;;;1.20;1.00;;;15.10;99.90;;;;;;5031944;28;20263;-68
2022/04/07 08:19:23;;;;;;;1.10;1.00;;;14.20;99.90;;;;;;5031920;28;20191;-66
2022/04/07 08:21:49;;;;;;;1.00;0.90;;;14.10;99.90;;;;;;5031932;28;20199;-66
2022/04/07 08:24:19;;;;;;;1.20;1.10;;;14.40;99.90;;;;;;5031851;28;20650;-66
2022/04/07 08:26:45;;;;;;;0.90;0.90;;;14.10;99.90;;;;;;5031762;28;20195;-66
2022/04/07 08:29:11;;;;;;;1.57;1.00;;;14.90;99.90;;;;;;5031776;28;20468;-65
2022/04/07 08:31:36;;;;;;;1.60;1.43;;;15.00;99.90;;;;;;5030424;28;20206;-66
2022/04/07 08:34:02;;;;;;;1.27;1.10;;;15.00;99.90;;;;;;5031699;28;20164;-65
2022/04/07 08:36:27;;;;;;;0.80;0.80;;;14.60;99.90;;;;;;5031388;28;20238;-66
2022/04/07 08:38:52;;;;;;;2.37;0.87;;;14.60;99.90;;;;;;5031759;28;20250;-66
2022/04/07 08:41:18;;;;;;;0.80;0.80;;;15.20;99.90;;;;;;5031303;28;20220;-66
2022/04/07 08:43:44;;;;;;;1.47;1.30;;;15.50;99.90;;;;;;5031501;28;20232;-66
2022/04/07 08:46:12;;;;;;;1.33;0.93;;;15.90;99.90;;;;;;5031097;28;20548;-67
2022/04/07 08:48:42;;;;;;;1.10;0.80;;;15.70;99.90;;;;;;5031345;28;20858;-67
2022/04/07 08:51:08;;;;;;;1.67;0.90;;;15.90;99.90;;;;;;5031092;28;20448;-66
2022/04/07 08:53:35;;;;;;;2.27;1.23;;;15.50;99.90;;;;;;5031162;28;20417;-67
2022/04/07 08:56:01;;;;;;;2.00;1.00;;;15.40;99.90;;;;;;5031522;28;20412;-67
2022/04/07 08:58:27;;;;;;;1.07;0.87;;;15.40;99.90;;;;;;5031966;28;20461;-67
2022/04/07 09:00:53;;;;;;;0.90;0.80;;;15.00;99.90;;;;;;5031587;28;20434;-67
2022/04/07 09:03:18;;;;;;;1.00;0.80;;;14.70;99.90;;;;;;5031584;28;20169;-68
2022/04/07 09:05:54;;;;;;;0.70;0.70;;;14.50;99.90;;;;;;5031415;28;20174;-67
2022/04/07 09:08:20;;;;;;;0.90;0.80;;;14.50;99.90;;;;;;5031193;28;20604;-67
2022/04/07 09:10:56;;;;;;;1.43;1.33;;;14.90;99.90;;;;;;5028727;28;20450;-68
2022/04/07 09:13:22;;;;;;;0.70;0.70;;;14.60;99.90;;;;;;5026922;28;20184;-67
2022/04/07 09:15:48;;;;;;;1.43;0.97;;;14.50;99.90;;;;;;5011705;28;20420;-66
2022/04/07 09:18:25;;;;;;;0.80;0.77;;;14.60;99.90;;;;;;5011686;28;20191;-67
2022/04/07 09:20:50;;;;;;;0.83;0.80;;;14.60;99.90;;;;;;5011198;28;20437;-67
2022/04/07 09:23:17;;;;;;;0.70;0.60;;;14.70;99.90;;;;;;5021291;28;20848;-67
2022/04/07 09:25:49;;;;;;;3.43;1.30;;;15.00;99.90;;;;;;5031280;28;20262;-67
2022/04/07 09:28:32;;;;;;;1.10;1.00;;;14.80;99.90;;;;;;5030836;28;20453;-67
2022/04/07 09:30:58;;;;;;;1.00;0.90;;;14.80;99.90;;;;;;5030757;28;20465;-67
2022/04/07 09:33:26;;;;;;;0.77;0.70;;;15.40;99.90;;;;;;5030450;28;20410;-66
2022/04/07 09:36:06;;;;;;;1.07;0.60;;;15.30;99.90;;;;;;5030793;28;20829;-66
2022/04/07 09:38:35;;;;;;;0.80;0.80;;;15.00;99.90;;;;;;5030589;28;20458;-66
2022/04/07 09:41:12;;;;;;;1.00;0.70;;;14.90;99.90;;;;;;5030783;28;20427;-66
2022/04/07 09:43:48;;;;;;;0.80;0.80;;;14.70;99.90;;;;;;5030183;28;20766;-66
2022/04/07 09:46:16;;;;;;;0.80;0.70;;;14.90;99.90;;;;;;5030430;28;20449;-67
2022/04/07 09:49:04;;;;;;;0.77;0.73;;;14.90;99.90;;;;;;5030419;28;20740;-67
2022/04/07 09:51:36;;;;;;;0.80;0.80;;;14.80;99.90;;;;;;5023363;28;20452;-66
2022/04/07 09:54:02;;;;;;;1.33;0.77;;;14.60;99.90;;;;;;5030478;28;20731;-68
2022/04/07 09:56:28;;;;;;;0.70;0.70;;;14.50;99.90;;;;;;5024775;28;20471;-68
2022/04/07 09:58:55;;;;;;;0.70;0.70;;;14.50;99.90;;;;;;5019281;28;20415;-69
2022/04/07 10:01:21;;;;;;;0.73;0.73;;;14.50;99.90;;;;;;5022615;28;20446;-67
2022/04/07 10:03:50;;;;;;;0.60;0.60;;;14.60;99.90;;;;;;5012104;28;20443;-68
2022/04/07 10:06:16;;;;;;;1.17;0.80;;;14.60;99.90;;;;;;5010735;28;20494;-67
2022/04/07 10:08:42;;;;;;;1.40;0.77;;;14.60;99.90;;;;;;5011018;28;20399;-67
2022/04/07 10:11:08;;;;;;;0.60;0.60;;;14.40;99.90;;;;;;5014921;28;20441;-67
2022/04/07 10:13:37;;;;;;;0.80;0.80;;;14.30;99.90;;;;;;5030185;28;20406;-67
2022/04/07 10:16:03;;;;;;;0.80;0.80;;;14.30;99.90;;;;;;5030534;28;20924;-68
2022/04/07 10:18:39;;;;;;;1.00;0.90;;;14.30;99.90;;;;;;5030376;28;20414;-68
2022/04/07 10:21:06;;;;;;;3.10;1.00;;;14.40;99.90;;;;;;5020171;28;20458;-68
2022/04/07 10:23:56;;;;;;;0.70;0.70;;;14.70;99.90;;;;;;5027910;28;20422;-67
2022/04/07 10:26:24;;;;;;;0.80;0.70;;;14.80;99.90;;;;;;5029940;28;20462;-67
2022/04/07 10:28:56;;;;;;;0.87;0.73;;;14.50;99.90;;;;;;5030069;28;20406;-67
2022/04/07 10:31:22;;;;;;;0.80;0.77;;;14.40;99.90;;;;;;5030380;28;20904;-66
2022/04/07 10:33:48;;;;;;;1.60;0.90;;;14.50;99.90;;;;;;5016756;28;20431;-68
2022/04/07 10:36:19;;;;;;;1.43;0.90;;;14.40;99.90;;;;;;5029852;28;20413;-68
2022/04/07 10:38:48;;;;;;;0.60;0.60;;;14.40;99.90;;;;;;5028631;28;20484;-66
2022/04/07 10:41:38;;;;;;;1.00;0.80;;;14.50;99.90;;;;;;5029303;28;20448;-69
2022/04/07 10:44:10;;;;;;;0.80;0.80;;;14.40;99.90;;;;;;5027317;28;20405;-68
2022/04/07 10:46:35;;;;;;;0.80;0.70;;;14.30;99.90;;;;;;5042004;28;20782;-69
2022/04/07 10:49:06;;;;;;;0.83;0.80;;;14.00;99.90;;;;;;5042208;28;20402;-68
2022/04/07 10:51:43;;;;;;;1.73;0.90;;;14.10;99.90;;;;;;5029261;28;20222;-67
2022/04/07 10:54:09;;;;;;;0.80;0.80;;;14.00;99.90;;;;;;5030341;28;20402;-67
2022/04/07 10:56:35;;;;;;;0.93;0.87;;;14.10;99.90;;;;;;5029538;28;20418;-68
2022/04/07 10:59:17;;;;;;;0.90;0.90;;;14.10;99.90;;;;;;5029837;28;20426;-67
2022/04/07 11:01:42;;;;;;;0.70;0.70;;;13.90;99.90;;;;;;5029745;28;20284;-66
2022/04/07 11:04:23;;;;;;;1.27;1.00;;;13.70;99.90;;;;;;5031047;28;20458;-68
2022/04/07 11:07:07;;;;;;;0.70;0.70;;;13.80;99.90;;;;;;5033728;28;20231;-67
2022/04/07 11:09:55;;;;;;;1.30;0.80;;;13.70;99.90;;;;;;5034122;28;20410;-68
2022/04/07 11:12:22;;;;;;;1.73;0.80;;;13.50;99.90;;;;;;5033930;28;20406;-67
2022/04/07 11:14:49;;;;;;;0.60;0.60;;;13.60;99.90;;;;;;5034093;28;20440;-67
2022/04/07 11:17:44;;;;;;;1.00;0.90;;;13.50;99.90;;;;;;5034142;28;20762;-67
2022/04/07 11:20:23;;;;;;;0.70;0.70;;;13.60;99.90;;;;;;5034242;28;21031;-67
2022/04/07 11:23:01;;;;;;;1.23;0.80;;;13.60;99.90;;;;;;5034759;28;20402;-68
2022/04/07 11:25:41;;;;;;;0.70;0.70;;;13.60;99.90;;;;;;5034584;28;20785;-67
2022/04/07 11:28:10;;;;;;;1.13;1.03;;;13.60;99.90;;;;;;5033406;28;20932;-68
2022/04/07 11:30:44;;;;;;;1.40;0.80;;;13.60;99.90;;;;;;5033394;28;20419;-68
2022/04/07 11:33:19;;;;;;;1.10;0.80;;;13.60;99.90;;;;;;5033062;28;20474;-68
2022/04/07 11:36:07;;;;;;;0.90;0.90;;;13.60;99.90;;;;;;5033437;28;20922;-68
2022/04/07 11:38:46;;;;;;;0.80;0.80;;;13.60;99.90;;;;;;5033614;28;20407;-68
2022/04/07 11:41:17;;;;;;;1.67;0.70;;;13.70;99.90;;;;;;5033595;28;20422;-67
2022/04/07 11:43:50;;;;;;;1.17;0.80;;;13.70;99.90;;;;;;5033825;28;20398;-68
2022/04/07 11:46:27;;;;;;;1.00;0.70;;;13.80;99.90;;;;;;5033043;28;20822;-68
2022/04/07 11:48:55;;;;;;;0.57;0.57;;;13.80;99.90;;;;;;5032818;28;20410;-67
2022/04/07 11:51:21;;;;;;;1.97;0.73;;;13.80;99.90;;;;;;5032720;28;20545;-67
2022/04/07 11:53:52;;;;;;;0.70;0.70;;;13.90;99.90;;;;;;5033112;28;20402;-67
2022/04/07 11:56:25;;;;;;;0.80;0.70;;;13.70;99.90;;;;;;5032793;28;20186;-69
2022/04/07 11:58:55;;;;;;;112.17;55.80;;;13.40;99.90;;;;;;5033016;28;20411;-69
2022/04/07 12:01:21;;;;;;;2.30;2.10;;;13.80;99.90;;;;;;5032895;28;20446;-68
2022/04/07 12:03:58;;;;;;;37.37;16.80;;;13.50;99.90;;;;;;5033040;28;20493;-68
2022/04/07 12:06:24;;;;;;;3.27;2.97;;;13.40;99.90;;;;;;5032698;28;20461;-68
2022/04/07 12:08:51;;;;;;;10.70;5.00;;;13.40;99.90;;;;;;5032839;28;20520;-67
2022/04/07 12:11:21;;;;;;;27.87;15.23;;;13.30;99.90;;;;;;5032359;28;20434;-67
2022/04/07 12:13:49;;;;;;;26.00;13.90;;;13.50;99.90;;;;;;5032425;28;20406;-67
2022/04/07 12:16:15;;;;;;;6.17;4.20;;;13.50;99.90;;;;;;5031935;28;20413;-67
2022/04/07 12:18:40;;;;;;;15.80;9.80;;;13.60;99.90;;;;;;5032474;28;20768;-68
2022/04/07 12:21:06;;;;;;;7.10;4.10;;;13.30;99.90;;;;;;5032930;28;20195;-68
2022/04/07 12:23:32;;;;;;;4.40;3.43;;;13.40;99.90;;;;;;5032689;28;20172;-67
2022/04/07 12:26:01;;;;;;;16.23;7.53;;;13.10;99.90;;;;;;5032359;28;20466;-67
2022/04/07 12:28:38;;;;;;;1.90;1.43;;;13.20;99.90;;;;;;5032940;28;20245;-68
2022/04/07 12:31:11;;;;;;;4.00;2.30;;;13.00;99.90;;;;;;5032930;28;20516;-68
2022/04/07 12:33:45;;;;;;;3.00;2.57;;;13.00;99.90;;;;;;5032400;28;20412;-68
2022/04/07 12:36:12;;;;;;;8.00;3.47;;;13.00;99.90;;;;;;5032246;28;20423;-69
2022/04/07 12:38:39;;;;;;;0.90;0.90;;;13.10;99.90;;;;;;5031871;28;20418;-68
2022/04/07 12:41:13;;;;;;;0.80;0.80;;;13.00;99.90;;;;;;5032022;28;20437;-67
2022/04/07 12:43:43;;;;;;;2.50;2.30;;;12.80;99.90;;;;;;5032118;28;20409;-67
2022/04/07 12:46:09;;;;;;;5.97;3.67;;;12.90;99.90;;;;;;5031740;28;20453;-68
2022/04/07 12:48:35;;;;;;;2.20;1.93;;;13.10;99.90;;;;;;5031843;28;20815;-68
2022/04/07 12:51:21;;;;;;;5.17;3.30;;;13.10;99.90;;;;;;5031903;28;20701;-67
2022/04/07 12:53:46;;;;;;;3.73;2.63;;;13.00;99.90;;;;;;5031938;28;20505;-68